Time;durP1;ratioP1;P1;durP2;ratioP2;P2;SDS_P1;SDS_P2;PMS_P1;PMS_P2;Temp;Humidity;BMP_temperature;BMP_pressure;BME280_temperature;BME280_humidity;BME280_pressure;Samples;Min_cycle;Max_cycle;Signal;HPM_P1;HPM_P2
2023/07/17 00:02:05;;;;;;;;;;;26.40;91.30;;;;;;5093787;28;20283;-43
2023/07/17 00:04:30;;;;;;;;;;;26.40;91.30;;;;;;5093988;28;19908;-43
2023/07/17 00:06:56;;;;;;;;;;;26.40;91.30;;;;;;5091826;28;19920;-44
2023/07/17 00:09:21;;;;;;;;;;;26.40;91.40;;;;;;5094287;28;20003;-44
2023/07/17 00:11:47;;;;;;;;;;;26.40;91.40;;;;;;5093924;28;20274;-47
2023/07/17 00:14:13;;;;;;;;;;;26.40;91.40;;;;;;5093912;28;19908;-44
2023/07/17 00:16:38;;;;;;;;;;;26.40;91.40;;;;;;5092721;28;19916;-45
2023/07/17 00:19:04;;;;;;;;;;;26.40;91.40;;;;;;5093821;28;19908;-44
2023/07/17 00:21:29;;;;;;;;;;;26.40;91.40;;;;;;5093902;28;20007;-44
2023/07/17 00:23:57;;;;;;;;;;;26.40;91.40;;;;;;5093884;28;19930;-45
2023/07/17 00:26:23;;;;;;;;;;;26.40;91.40;;;;;;5092499;28;19919;-44
2023/07/17 00:28:48;;;;;;;;;;;26.40;91.60;;;;;;5093837;28;19908;-43
2023/07/17 00:31:14;;;;;;;;;;;26.40;91.40;;;;;;5093866;28;19962;-46
2023/07/17 00:33:39;;;;;;;;;;;26.40;91.40;;;;;;5093788;28;19908;-45
2023/07/17 00:36:05;;;;;;;;;;;26.40;91.40;;;;;;5092623;28;19912;-43
2023/07/17 00:38:30;;;;;;;;;;;26.40;91.40;;;;;;5093467;28;20390;-44
2023/07/17 00:40:56;;;;;;;;;;;26.40;91.40;;;;;;5093622;28;19919;-44
2023/07/17 00:43:21;;;;;;;;;;;26.40;91.40;;;;;;5093720;28;20022;-43
2023/07/17 00:45:47;;;;;;;;;;;26.40;91.40;;;;;;5071715;28;19932;-44
2023/07/17 00:48:13;;;;;;;;;;;26.40;91.40;;;;;;5072197;28;19946;-44
2023/07/17 00:50:39;;;;;;;;;;;26.40;91.40;;;;;;5075067;28;19959;-43
2023/07/17 00:53:05;;;;;;;;;;;26.40;91.40;;;;;;5077031;28;19958;-43
2023/07/17 00:55:32;;;;;;;;;;;26.40;91.40;;;;;;5076853;28;19915;-43
2023/07/17 00:57:59;;;;;;;;;;;26.40;91.30;;;;;;5074953;28;19917;-42
2023/07/17 01:00:24;;;;;;;;;;;26.40;91.30;;;;;;5077092;28;20367;-43
2023/07/17 01:02:53;;;;;;;;;;;26.40;91.30;;;;;;5076776;28;20371;-42
2023/07/17 01:05:19;;;;;;;;;;;26.40;91.60;;;;;;5076525;28;19909;-45
2023/07/17 01:07:45;;;;;;;;;;;26.40;91.40;;;;;;5075820;28;20032;-43
2023/07/17 01:10:10;;;;;;;;;;;26.40;91.40;;;;;;5075755;28;20355;-42
2023/07/17 01:12:36;;;;;;;;;;;26.40;91.30;;;;;;5076422;28;19909;-48
2023/07/17 01:15:02;;;;;;;;;;;26.40;91.30;;;;;;5076590;28;19909;-42
2023/07/17 01:17:28;;;;;;;;;;;26.40;91.30;;;;;;5075458;28;20410;-45
2023/07/17 01:19:53;;;;;;;;;;;26.40;91.40;;;;;;5074832;28;19912;-43
2023/07/17 01:22:19;;;;;;;;;;;26.40;90.90;;;;;;5075205;28;19913;-43
2023/07/17 01:24:44;;;;;;;;;;;26.40;90.30;;;;;;5076302;28;19908;-44
2023/07/17 01:27:10;;;;;;;;;;;26.40;90.90;;;;;;5075028;28;19916;-43
2023/07/17 01:29:35;;;;;;;;;;;26.40;91.10;;;;;;5076346;28;20013;-43
2023/07/17 01:32:01;;;;;;;;;;;26.40;91.20;;;;;;5076000;28;20264;-43
2023/07/17 01:34:26;;;;;;;;;;;26.40;91.20;;;;;;5075991;28;19908;-44
2023/07/17 01:36:52;;;;;;;;;;;26.40;91.30;;;;;;5075911;28;19908;-43
2023/07/17 01:39:17;;;;;;;;;;;26.40;91.30;;;;;;5074868;28;19916;-44
2023/07/17 01:41:43;;;;;;;;;;;26.40;91.30;;;;;;5076119;28;19919;-42
2023/07/17 01:44:08;;;;;;;;;;;26.40;91.40;;;;;;5076904;28;19937;-43
2023/07/17 01:46:34;;;;;;;;;;;26.40;91.40;;;;;;5095530;28;20320;-46
2023/07/17 01:48:59;;;;;;;;;;;26.40;91.40;;;;;;5096366;28;19908;-43
2023/07/17 01:51:24;;;;;;;;;;;26.40;91.40;;;;;;5095891;28;19908;-44
2023/07/17 01:53:50;;;;;;;;;;;26.40;91.40;;;;;;5096158;28;20410;-43
2023/07/17 01:56:15;;;;;;;;;;;26.40;91.50;;;;;;5094238;28;19919;-45
2023/07/17 01:58:41;;;;;;;;;;;26.40;91.50;;;;;;5095659;28;20267;-43
2023/07/17 02:01:07;;;;;;;;;;;26.40;91.50;;;;;;5095025;28;20393;-43
2023/07/17 02:03:34;;;;;;;;;;;26.40;91.50;;;;;;5095287;28;19959;-43
2023/07/17 02:05:59;;;;;;;;;;;26.40;91.50;;;;;;5095153;28;19908;-43
2023/07/17 02:08:25;;;;;;;;;;;26.40;91.70;;;;;;5095776;28;19915;-43
2023/07/17 02:10:51;;;;;;;;;;;26.40;91.50;;;;;;5095802;28;20029;-46
2023/07/17 02:13:17;;;;;;;;;;;26.40;91.50;;;;;;5095407;28;19912;-44
2023/07/17 02:15:42;;;;;;;;;;;26.40;91.50;;;;;;5095632;28;19931;-42
2023/07/17 02:18:08;;;;;;;;;;;26.40;91.50;;;;;;5094605;28;19916;-43
2023/07/17 02:20:33;;;;;;;;;;;26.40;91.50;;;;;;5077625;28;19967;-43
2023/07/17 02:22:59;;;;;;;;;;;26.40;91.50;;;;;;5095581;28;19919;-47
2023/07/17 02:25:24;;;;;;;;;;;26.40;91.50;;;;;;5095843;28;19908;-46
2023/07/17 02:27:50;;;;;;;;;;;26.40;91.50;;;;;;5094521;28;19912;-42
2023/07/17 02:30:15;;;;;;;;;;;26.40;91.60;;;;;;5095143;28;20266;-43
2023/07/17 02:32:40;;;;;;;;;;;26.40;91.60;;;;;;5095354;28;19908;-46
2023/07/17 02:35:06;;;;;;;;;;;26.40;91.60;;;;;;5095447;28;19908;-45
2023/07/17 02:37:32;;;;;;;;;;;26.40;91.60;;;;;;5094275;28;19919;-42
2023/07/17 02:39:57;;;;;;;;;;;26.40;91.60;;;;;;5076948;28;19916;-44
2023/07/17 02:42:23;;;;;;;;;;;26.40;91.60;;;;;;5095153;28;20057;-46
2023/07/17 02:44:48;;;;;;;;;;;26.40;91.60;;;;;;5095011;28;19920;-46
2023/07/17 02:47:14;;;;;;;;;;;26.40;91.60;;;;;;5094774;28;20366;-47
2023/07/17 02:49:40;;;;;;;;;;;26.40;91.60;;;;;;5094023;28;19958;-44
2023/07/17 02:52:06;;;;;;;;;;;26.40;91.60;;;;;;5095018;28;19908;-42
2023/07/17 02:54:31;;;;;;;;;;;26.40;91.60;;;;;;5094664;28;20315;-45
2023/07/17 02:56:57;;;;;;;;;;;26.40;91.60;;;;;;5093049;28;19958;-43
2023/07/17 02:59:22;;;;;;;;;;;26.40;91.60;;;;;;5094798;28;19954;-43
2023/07/17 03:01:48;;;;;;;;;;;26.40;91.60;;;;;;5094836;28;20355;-43
2023/07/17 03:04:14;;;;;;;;;;;26.40;91.60;;;;;;5076572;28;19908;-42
2023/07/17 03:06:39;;;;;;;;;;;26.40;91.60;;;;;;5093504;28;19966;-43
2023/07/17 03:09:05;;;;;;;;;;;26.40;91.60;;;;;;5095045;28;19915;-43
2023/07/17 03:11:31;;;;;;;;;;;26.40;91.60;;;;;;5094406;28;19908;-45
2023/07/17 03:13:57;;;;;;;;;;;26.40;91.60;;;;;;5076142;28;19920;-45
2023/07/17 03:16:22;;;;;;;;;;;26.40;91.60;;;;;;5093491;28;19920;-43
2023/07/17 03:18:48;;;;;;;;;;;26.40;91.60;;;;;;5094213;28;19912;-42
2023/07/17 03:21:13;;;;;;;;;;;26.40;91.60;;;;;;5094168;28;19919;-44
2023/07/17 03:23:39;;;;;;;;;;;26.40;91.60;;;;;;5094154;28;19920;-44
2023/07/17 03:26:04;;;;;;;;;;;26.40;91.60;;;;;;5094302;28;19995;-45
2023/07/17 03:28:30;;;;;;;;;;;26.40;91.60;;;;;;5093663;28;19912;-47
2023/07/17 03:30:55;;;;;;;;;;;26.40;91.60;;;;;;5094084;28;20324;-46
2023/07/17 03:33:21;;;;;;;;;;;26.40;91.60;;;;;;5094605;28;19916;-43
2023/07/17 03:35:46;;;;;;;;;;;26.40;91.60;;;;;;5093928;28;19954;-44
2023/07/17 03:38:12;;;;;;;;;;;26.40;91.60;;;;;;5092255;28;19912;-42
2023/07/17 03:40:37;;;;;;;;;;;26.30;91.50;;;;;;5092911;28;19920;-43
2023/07/17 03:43:03;;;;;;;;;;;26.30;91.50;;;;;;5093877;28;19954;-44
2023/07/17 03:45:28;;;;;;;;;;;26.30;91.50;;;;;;5093581;28;19926;-47
2023/07/17 03:47:54;;;;;;;;;;;26.30;91.60;;;;;;5093096;28;19912;-43
2023/07/17 03:50:19;;;;;;;;;;;26.30;91.60;;;;;;5094133;28;19916;-43
2023/07/17 03:52:45;;;;;;;;;;;26.30;91.50;;;;;;5094106;28;19948;-43
2023/07/17 03:55:10;;;;;;;;;;;26.30;91.60;;;;;;5092896;28;19983;-45
2023/07/17 03:57:36;;;;;;;;;;;26.40;91.60;;;;;;5092957;28;19912;-43
2023/07/17 04:00:01;;;;;;;;;;;26.30;91.60;;;;;;5093063;28;19968;-45
2023/07/17 04:02:27;;;;;;;;;;;26.30;91.60;;;;;;5094094;28;19912;-43
2023/07/17 04:04:52;;;;;;;;;;;26.30;91.60;;;;;;5094003;28;20002;-42
2023/07/17 04:07:19;;;;;;;;;;;26.30;91.60;;;;;;5093686;28;19912;-45
2023/07/17 04:09:44;;;;;;;;;;;26.30;91.60;;;;;;5092348;28;19919;-49
2023/07/17 04:12:11;;;;;;;;;;;26.30;91.60;;;;;;5093903;28;19991;-48
2023/07/17 04:14:36;;;;;;;;;;;26.30;91.60;;;;;;5093848;28;19909;-46
2023/07/17 04:17:03;;;;;;;;;;;26.40;91.60;;;;;;5093447;28;19969;-43
2023/07/17 04:19:29;;;;;;;;;;;26.30;91.60;;;;;;5092722;28;19919;-46
2023/07/17 04:21:55;;;;;;;;;;;26.30;91.60;;;;;;5093318;28;19912;-45
2023/07/17 04:24:21;;;;;;;;;;;26.30;91.60;;;;;;5093340;28;20278;-47
2023/07/17 04:26:47;;;;;;;;;;;26.30;91.60;;;;;;5097067;28;19909;-42
2023/07/17 04:29:13;;;;;;;;;;;26.30;91.60;;;;;;5096448;28;20381;-42
2023/07/17 04:31:38;;;;;;;;;;;26.30;91.60;;;;;;5096224;28;20007;-42
2023/07/17 04:34:04;;;;;;;;;;;26.30;91.60;;;;;;5096961;28;19942;-44
2023/07/17 04:36:29;;;;;;;;;;;26.30;91.60;;;;;;5097623;28;19918;-46
2023/07/17 04:38:55;;;;;;;;;;;26.30;91.60;;;;;;5097361;28;19908;-42
2023/07/17 04:41:20;;;;;;;;;;;26.30;91.60;;;;;;5097255;28;20110;-44
2023/07/17 04:43:46;;;;;;;;;;;26.30;91.60;;;;;;5096887;28;20326;-42
2023/07/17 04:46:11;;;;;;;;;;;26.30;91.60;;;;;;5096652;28;20442;-43
2023/07/17 04:48:37;;;;;;;;;;;26.30;91.60;;;;;;5096158;28;20305;-44
2023/07/17 04:51:02;;;;;;;;;;;26.30;91.30;;;;;;5097083;28;19908;-42
2023/07/17 04:53:29;;;;;;;;;;;26.30;91.50;;;;;;5096334;28;20409;-44
2023/07/17 04:55:55;;;;;;;;;;;26.30;91.50;;;;;;5095115;28;20363;-44
2023/07/17 04:58:20;;;;;;;;;;;26.30;91.60;;;;;;5096962;28;19908;-44
2023/07/17 05:00:47;;;;;;;;;;;26.30;91.60;;;;;;5096907;28;20006;-45
2023/07/17 05:03:13;;;;;;;;;;;26.30;91.20;;;;;;5097087;28;20263;-47
2023/07/17 05:05:39;;;;;;;;;;;26.30;91.20;;;;;;5077555;28;19916;-46
2023/07/17 05:08:05;;;;;;;;;;;26.30;91.30;;;;;;5095616;28;20011;-44
2023/07/17 05:10:31;;;;;;;;;;;26.30;91.40;;;;;;5096682;28;19908;-42
2023/07/17 05:12:56;;;;;;;;;;;26.30;91.40;;;;;;5096394;28;20295;-44
2023/07/17 05:15:22;;;;;;;;;;;26.30;91.50;;;;;;5096521;28;20262;-42
2023/07/17 05:17:47;;;;;;;;;;;26.30;91.50;;;;;;5092887;28;19919;-46
2023/07/17 05:20:13;;;;;;;;;;;26.30;91.50;;;;;;5095482;28;20359;-41
2023/07/17 05:22:38;;;;;;;;;;;26.30;91.50;;;;;;5096570;28;19919;-44
2023/07/17 05:25:04;;;;;;;;;;;26.30;91.50;;;;;;5096828;28;20415;-43
2023/07/17 05:27:29;;;;;;;;;;;26.30;91.50;;;;;;5094532;28;19908;-42
2023/07/17 05:29:55;;;;;;;;;;;26.30;91.50;;;;;;5093654;28;20282;-43
2023/07/17 05:32:20;;;;;;;;;;;26.30;91.50;;;;;;5096062;28;19946;-44
2023/07/17 05:34:46;;;;;;;;;;;26.30;91.50;;;;;;5095920;28;19914;-42
2023/07/17 05:37:11;;;;;;;;;;;26.30;91.50;;;;;;5077850;28;19909;-44
2023/07/17 05:39:37;;;;;;;;;;;26.30;91.50;;;;;;5098868;28;19912;-47
2023/07/17 05:42:03;;;;;;;;;;;26.30;91.50;;;;;;5096117;28;19916;-46
2023/07/17 05:44:28;;;;;;;;;;;26.30;91.50;;;;;;5094408;28;19920;-44
2023/07/17 05:46:54;;;;;;;;;;;26.30;91.50;;;;;;5096045;28;19913;-43
2023/07/17 05:49:19;;;;;;;;;;;26.30;91.50;;;;;;5095885;28;20347;-43
2023/07/17 05:51:45;;;;;;;;;;;26.30;91.40;;;;;;5093266;28;19912;-46
2023/07/17 05:54:10;;;;;;;;;;;26.30;91.40;;;;;;5096363;28;20000;-42
2023/07/17 05:56:36;;;;;;;;;;;26.30;91.40;;;;;;5095500;28;19916;-43
2023/07/17 05:59:01;;;;;;;;;;;26.40;91.70;;;;;;5095830;28;20265;-43
2023/07/17 06:01:27;;;;;;;;;;;26.30;91.40;;;;;;5094595;28;19916;-44
2023/07/17 06:03:53;;;;;;;;;;;26.30;91.40;;;;;;5095205;28;20379;-43
2023/07/17 06:06:19;;;;;;;;;;;26.30;91.40;;;;;;5095395;28;19942;-42
2023/07/17 06:08:45;;;;;;;;;;;26.30;91.40;;;;;;5095220;28;19909;-43
2023/07/17 06:11:10;;;;;;;;;;;26.30;91.30;;;;;;5095118;28;19908;-42
2023/07/17 06:13:36;;;;;;;;;;;26.30;91.30;;;;;;5093148;28;19908;-45
2023/07/17 06:16:02;;;;;;;;;;;26.30;91.30;;;;;;5095335;28;19912;-43
2023/07/17 06:18:28;;;;;;;;;;;26.30;91.30;;;;;;5094911;28;20026;-44
2023/07/17 06:20:53;;;;;;;;;;;26.30;91.30;;;;;;5094847;28;19912;-44
2023/07/17 06:23:19;;;;;;;;;;;26.30;91.30;;;;;;5093254;28;19912;-43
2023/07/17 06:25:45;;;;;;;;;;;26.30;91.30;;;;;;5095051;28;20378;-44
2023/07/17 06:28:11;;;;;;;;;;;26.30;91.30;;;;;;5095108;28;20271;-44
2023/07/17 06:30:36;;;;;;;;;;;26.30;91.30;;;;;;5094624;28;19914;-45
2023/07/17 06:33:02;;;;;;;;;;;26.30;91.30;;;;;;5093952;28;20367;-44
2023/07/17 06:35:27;;;;;;;;;;;26.30;91.30;;;;;;5094076;28;20264;-43
2023/07/17 06:37:53;;;;;;;;;;;26.30;91.30;;;;;;5094751;28;19973;-43
2023/07/17 06:40:18;;;;;;;;;;;26.30;91.30;;;;;;5094828;28;20270;-42
2023/07/17 06:42:44;;;;;;;;;;;26.30;91.30;;;;;;5094456;28;19987;-44
2023/07/17 06:45:09;;;;;;;;;;;26.30;91.20;;;;;;5093330;28;19920;-45
2023/07/17 06:47:35;;;;;;;;;;;26.30;91.30;;;;;;5093981;28;19908;-44
2023/07/17 06:50:00;;;;;;;;;;;26.30;91.20;;;;;;5077246;28;19965;-42
2023/07/17 06:52:25;;;;;;;;;;;26.30;91.20;;;;;;5094543;28;20373;-44
2023/07/17 06:54:51;;;;;;;;;;;26.30;91.20;;;;;;5094135;28;19931;-43
2023/07/17 06:57:16;;;;;;;;;;;26.30;91.20;;;;;;5094393;28;19914;-41
2023/07/17 06:59:42;;;;;;;;;;;26.40;91.30;;;;;;5094527;28;19935;-42
2023/07/17 07:02:08;;;;;;;;;;;26.30;91.20;;;;;;5092595;28;20046;-44
2023/07/17 07:04:33;;;;;;;;;;;26.30;91.20;;;;;;5094508;28;20374;-45
2023/07/17 07:06:58;;;;;;;;;;;26.30;91.20;;;;;;5094128;28;19912;-47
2023/07/17 07:09:24;;;;;;;;;;;26.30;91.20;;;;;;5094062;28;20369;-42
2023/07/17 07:11:49;;;;;;;;;;;26.30;91.20;;;;;;5093406;28;19918;-46
2023/07/17 07:14:15;;;;;;;;;;;26.30;91.20;;;;;;5094531;28;19908;-42
2023/07/17 07:16:40;;;;;;;;;;;26.30;91.20;;;;;;5094165;28;20436;-45
2023/07/17 07:19:06;;;;;;;;;;;26.30;91.20;;;;;;5094961;28;19912;-45
2023/07/17 07:21:31;;;;;;;;;;;26.30;91.10;;;;;;5094060;28;20019;-42
2023/07/17 07:23:57;;;;;;;;;;;26.30;91.10;;;;;;5093783;28;19961;-45
2023/07/17 07:26:22;;;;;;;;;;;26.30;91.10;;;;;;5094081;28;19915;-42
2023/07/17 07:28:48;;;;;;;;;;;26.30;91.10;;;;;;5092962;28;19928;-45
2023/07/17 07:31:13;;;;;;;;;;;26.30;91.10;;;;;;5093803;28;19908;-43
2023/07/17 07:33:39;;;;;;;;;;;26.30;91.10;;;;;;5093770;28;20014;-42
2023/07/17 07:36:04;;;;;;;;;;;26.30;91.10;;;;;;5093723;28;19923;-42
2023/07/17 07:38:29;;;;;;;;;;;26.30;91.10;;;;;;5094444;28;19923;-42
2023/07/17 07:40:55;;;;;;;;;;;26.30;91.10;;;;;;5092009;28;19916;-45
2023/07/17 07:43:20;;;;;;;;;;;26.30;91.00;;;;;;5093712;28;19919;-43
2023/07/17 07:45:46;;;;;;;;;;;26.30;91.00;;;;;;5093754;28;20009;-42
2023/07/17 07:48:11;;;;;;;;;;;26.30;91.00;;;;;;5093398;28;19931;-46
2023/07/17 07:50:37;;;;;;;;;;;26.30;91.00;;;;;;5092790;28;19912;-48
2023/07/17 07:53:02;;;;;;;;;;;26.30;91.00;;;;;;5093860;28;20003;-41
2023/07/17 07:55:28;;;;;;;;;;;26.30;91.00;;;;;;5093950;28;19912;-41
2023/07/17 07:57:53;;;;;;;;;;;26.20;90.90;;;;;;5093872;28;20380;-43
2023/07/17 08:00:19;;;;;;;;;;;26.20;90.90;;;;;;5094237;28;19928;-43
2023/07/17 08:02:44;;;;;;;;;;;26.20;90.90;;;;;;5096703;28;19917;-42
2023/07/17 08:05:10;;;;;;;;;;;26.20;91.20;;;;;;5097905;28;19908;-45
2023/07/17 08:07:35;;;;;;;;;;;26.20;90.90;;;;;;5096433;28;20002;-45
2023/07/17 08:10:01;;;;;;;;;;;26.20;91.00;;;;;;5097648;28;20323;-44
2023/07/17 08:12:26;;;;;;;;;;;26.20;90.90;;;;;;5097829;28;20390;-45
2023/07/17 08:14:53;;;;;;;;;;;26.20;90.90;;;;;;5097870;28;19912;-45
2023/07/17 08:17:18;;;;;;;;;;;26.20;90.90;;;;;;5096458;28;20315;-44
2023/07/17 08:19:44;;;;;;;;;;;26.20;91.20;;;;;;5097583;28;19919;-42
2023/07/17 08:22:09;;;;;;;;;;;26.20;90.90;;;;;;5090805;28;20375;-41
2023/07/17 08:24:35;;;;;;;;;;;26.20;90.40;;;;;;5096355;28;19908;-46
2023/07/17 08:27:00;;;;;;;;;;;26.20;89.30;;;;;;5099188;28;19912;-42
2023/07/17 08:29:26;;;;;;;;;;;26.20;89.40;;;;;;5104373;28;19908;-40
2023/07/17 08:31:51;;;;;;;;;;;26.20;89.90;;;;;;5101635;28;19919;-41
2023/07/17 08:34:20;;;;;;;;;;;26.20;90.10;;;;;;5096234;28;19919;-41
2023/07/17 08:36:46;;;;;;;;;;;26.20;90.20;;;;;;5117149;28;19947;-47
2023/07/17 08:39:11;;;;;;;;;;;26.20;90.30;;;;;;5107260;28;20358;-40
2023/07/17 08:41:39;;;;;;;;;;;26.20;90.40;;;;;;5095635;28;19916;-44
2023/07/17 08:44:05;;;;;;;;;;;26.20;90.50;;;;;;5107668;28;20002;-41
2023/07/17 08:46:31;;;;;;;;;;;26.20;90.70;;;;;;5117602;28;19947;-41
2023/07/17 08:48:57;;;;;;;;;;;26.20;90.70;;;;;;5114212;28;20248;-40
2023/07/17 08:51:23;;;;;;;;;;;26.20;90.80;;;;;;5094911;28;19919;-42
2023/07/17 08:53:51;;;;;;;;;;;26.20;90.80;;;;;;5109922;28;19916;-41
2023/07/17 08:56:16;;;;;;;;;;;26.20;90.90;;;;;;5096775;28;19909;-43
2023/07/17 08:58:42;;;;;;;;;;;26.20;90.90;;;;;;5095672;28;20351;-41
2023/07/17 09:01:07;;;;;;;;;;;26.20;90.90;;;;;;5094350;28;19920;-41
2023/07/17 09:03:36;;;;;;;;;;;26.00;85.40;;;;;;5077317;28;19924;-40
2023/07/17 09:06:02;;;;;;;;;;;25.80;86.70;;;;;;5096506;28;19908;-41
2023/07/17 09:08:28;;;;;;;;;;;25.70;87.00;;;;;;5096854;28;19908;-40
2023/07/17 09:11:09;;;;;;;;;;;25.60;85.60;;;;;;5095203;28;20342;-40
2023/07/17 09:13:44;;;;;;;;;;;25.50;86.60;;;;;;5095860;28;20352;-47
2023/07/17 09:16:14;;;;;;;;;;;25.40;85.90;;;;;;5095263;28;20282;-43
2023/07/17 09:18:39;;;;;;;;;;;25.30;84.00;;;;;;5096655;28;19908;-42
2023/07/17 09:21:05;;;;;;;;;;;25.30;84.80;;;;;;5095389;28;20274;-40
2023/07/17 09:23:38;;;;;;;;;;;25.30;83.30;;;;;;5094511;28;20499;-41
2023/07/17 09:26:03;;;;;;;;;;;25.30;84.50;;;;;;5096207;28;19908;-45
2023/07/17 09:28:29;;;;;;;;;;;25.30;83.40;;;;;;5095060;28;20441;-44
2023/07/17 09:31:01;;;;;;;;;;;25.30;84.50;;;;;;5092482;28;19912;-44
2023/07/17 09:33:26;;;;;;;;;;;25.30;83.60;;;;;;5095102;28;20274;-40
2023/07/17 09:35:55;;;;;;;;;;;25.30;83.70;;;;;;5112190;28;19908;-41
2023/07/17 09:38:25;;;;;;;;;;;25.30;83.70;;;;;;5076702;28;19920;-43
2023/07/17 09:40:50;;;;;;;;;;;25.30;82.90;;;;;;5095028;28;20367;-44
2023/07/17 09:43:27;;;;;;;;;;;25.30;83.50;;;;;;5097825;28;19951;-41
2023/07/17 09:45:52;;;;;;;;;;;25.20;84.00;;;;;;5088934;28;20081;-42
2023/07/17 09:48:18;;;;;;;;;;;25.20;82.70;;;;;;5098967;28;20031;-48
2023/07/17 09:50:44;;;;;;;;;;;25.10;82.90;;;;;;5114765;28;19915;-41
2023/07/17 09:53:10;;;;;;;;;;;25.20;83.10;;;;;;5109620;28;19908;-42
2023/07/17 09:55:37;;;;;;;;;;;25.30;85.80;;;;;;5093573;28;20266;-46
2023/07/17 09:58:04;;;;;;;;;;;25.30;86.70;;;;;;5091768;28;19966;-43
2023/07/17 10:00:31;;;;;;;;;;;25.40;87.00;;;;;;5093940;28;19954;-40
2023/07/17 10:03:03;;;;;;;;;;;25.50;87.30;;;;;;5087195;28;20370;-40
2023/07/17 10:05:30;;;;;;;;;;;25.50;86.50;;;;;;5110902;28;19911;-45
2023/07/17 10:07:57;;;;;;;;;;;25.60;86.90;;;;;;5095930;28;20321;-40
2023/07/17 10:10:22;;;;;;;;;;;25.60;86.50;;;;;;5115555;28;19915;-41
2023/07/17 10:12:48;;;;;;;;;;;25.60;86.40;;;;;;5113549;28;19915;-46
2023/07/17 10:15:14;;;;;;;;;;;25.70;87.00;;;;;;5112979;28;19956;-40
2023/07/17 10:17:40;;;;;;;;;;;25.70;86.10;;;;;;5107744;28;19912;-40
2023/07/17 10:20:07;;;;;;;;;;;25.70;85.90;;;;;;5095363;28;19923;-40
2023/07/17 10:22:33;;;;;;;;;;;25.70;86.00;;;;;;5094117;28;20378;-39
2023/07/17 10:25:00;;;;;;;;;;;25.70;86.30;;;;;;5092627;28;19920;-40
2023/07/17 10:27:41;;;;;;;;;;;25.70;86.30;;;;;;5107259;28;19911;-39
2023/07/17 10:30:33;;;;;;;;;;;25.80;85.60;;;;;;5093866;28;19912;-41
2023/07/17 10:33:11;;;;;;;;;;;25.80;86.20;;;;;;5091142;28;20411;-43
2023/07/17 10:35:49;;;;;;;;;;;25.80;86.30;;;;;;5098041;28;19918;-40
2023/07/17 10:38:18;;;;;;;;;;;25.80;85.80;;;;;;5095063;28;19908;-40
2023/07/17 10:40:44;;;;;;;;;;;25.80;86.00;;;;;;5094321;28;19912;-41
2023/07/17 10:43:17;;;;;;;;;;;25.90;85.80;;;;;;5093802;28;19916;-40
2023/07/17 10:45:43;;;;;;;;;;;25.90;86.80;;;;;;5094075;28;19920;-41
2023/07/17 10:48:09;;;;;;;;;;;25.90;88.00;;;;;;5094393;28;20293;-41
2023/07/17 10:50:35;;;;;;;;;;;25.90;88.60;;;;;;5094870;28;19908;-41
2023/07/17 10:53:01;;;;;;;;;;;25.80;88.80;;;;;;5093472;28;19908;-41
2023/07/17 10:55:27;;;;;;;;;;;25.80;87.80;;;;;;5094857;28;19909;-42
2023/07/17 10:57:53;;;;;;;;;;;25.90;88.90;;;;;;5094704;28;19915;-41
2023/07/17 11:00:19;;;;;;;;;;;25.90;89.20;;;;;;5094580;28;19969;-41
2023/07/17 11:02:44;;;;;;;;;;;25.90;89.50;;;;;;5094868;28;19912;-43
2023/07/17 11:05:10;;;;;;;;;;;25.90;89.50;;;;;;5092368;28;19962;-41
2023/07/17 11:07:35;;;;;;;;;;;25.90;89.60;;;;;;5094854;28;19909;-41
2023/07/17 11:10:01;;;;;;;;;;;25.90;89.70;;;;;;5091014;28;19912;-47
2023/07/17 11:12:26;;;;;;;;;;;25.90;89.80;;;;;;5104364;28;19920;-42
2023/07/17 11:14:52;;;;;;;;;;;25.90;89.90;;;;;;5099542;28;20334;-40
2023/07/17 11:17:18;;;;;;;;;;;25.90;89.70;;;;;;5096061;28;19918;-42
2023/07/17 11:19:44;;;;;;;;;;;25.90;89.70;;;;;;5093788;28;19915;-44
2023/07/17 11:22:10;;;;;;;;;;;25.90;89.80;;;;;;5094029;28;19915;-42
2023/07/17 11:24:35;;;;;;;;;;;25.90;89.90;;;;;;5092337;28;19995;-47
2023/07/17 11:27:01;;;;;;;;;;;25.90;90.00;;;;;;5082350;28;19907;-42
2023/07/17 11:29:26;;;;;;;;;;;25.90;89.90;;;;;;5112005;28;19913;-43
2023/07/17 11:31:56;;;;;;;;;;;25.90;90.00;;;;;;5112028;28;20377;-41
2023/07/17 11:34:22;;;;;;;;;;;25.90;89.90;;;;;;5111055;28;20316;-42
2023/07/17 11:36:48;;;;;;;;;;;25.90;88.80;;;;;;5091864;28;19912;-49
2023/07/17 11:39:13;;;;;;;;;;;25.90;87.90;;;;;;5093319;28;19904;-49
2023/07/17 11:41:49;;;;;;;;;;;25.90;87.80;;;;;;5093836;28;19915;-48
2023/07/17 11:44:15;;;;;;;;;;;25.90;88.70;;;;;;5091891;28;19934;-46
2023/07/17 11:46:41;;;;;;;;;;;25.90;88.90;;;;;;5092741;28;19943;-48
2023/07/17 11:49:06;;;;;;;;;;;25.90;89.40;;;;;;5093136;28;21784;-45
2023/07/17 11:51:32;;;;;;;;;;;25.90;87.40;;;;;;5101825;28;20415;-49
2023/07/17 11:53:57;;;;;;;;;;;25.90;88.90;;;;;;5089737;28;19916;-44
2023/07/17 11:56:32;;;;;;;;;;;25.90;89.50;;;;;;5093961;28;19908;-44
2023/07/17 11:58:58;;;;;;;;;;;26.00;89.40;;;;;;5095600;28;19904;-45
2023/07/17 12:01:23;;;;;;;;;;;26.00;89.80;;;;;;5111827;28;19919;-42
2023/07/17 12:03:49;;;;;;;;;;;26.00;89.60;;;;;;5101583;28;20376;-46
2023/07/17 12:06:14;;;;;;;;;;;26.00;89.90;;;;;;5093770;28;19914;-43
2023/07/17 12:08:41;;;;;;;;;;;26.00;89.60;;;;;;5091845;28;20014;-44
2023/07/17 12:11:06;;;;;;;;;;;26.00;89.50;;;;;;5092389;28;20248;-41
2023/07/17 12:13:32;;;;;;;;;;;26.00;89.30;;;;;;5102379;28;20411;-45
2023/07/17 12:15:57;;;;;;;;;;;26.00;88.80;;;;;;5109100;28;20103;-46
2023/07/17 12:18:23;;;;;;;;;;;26.00;88.80;;;;;;5110774;28;19911;-45
2023/07/17 12:20:48;;;;;;;;;;;26.00;88.70;;;;;;5113869;28;19916;-48
2023/07/17 12:23:14;;;;;;;;;;;26.00;89.10;;;;;;5106816;28;19946;-42
2023/07/17 12:25:42;;;;;;;;;;;26.00;89.20;;;;;;5087813;28;19908;-47
2023/07/17 12:28:08;;;;;;;;;;;26.00;87.90;;;;;;5090150;28;19934;-44
2023/07/17 12:30:33;;;;;;;;;;;26.00;88.80;;;;;;5092320;28;19915;-44
2023/07/17 12:32:59;;;;;;;;;;;26.00;89.30;;;;;;5092292;28;19904;-49
2023/07/17 12:35:24;;;;;;;;;;;26.00;89.80;;;;;;5099430;28;20397;-45
2023/07/17 12:37:50;;;;;;;;;;;26.00;89.90;;;;;;5092122;28;20263;-45
2023/07/17 12:40:15;;;;;;;;;;;26.00;89.90;;;;;;5093180;28;20359;-45
2023/07/17 12:42:41;;;;;;;;;;;26.00;89.10;;;;;;5092006;28;20003;-46
2023/07/17 12:45:07;;;;;;;;;;;26.00;89.30;;;;;;5103485;28;19922;-47
2023/07/17 12:47:32;;;;;;;;;;;26.00;89.30;;;;;;5093874;28;20427;-45
2023/07/17 12:49:58;;;;;;;;;;;26.00;89.60;;;;;;5095084;28;19912;-45
2023/07/17 12:52:24;;;;;;;;;;;26.00;88.90;;;;;;5096735;28;20330;-45
2023/07/17 12:54:49;;;;;;;;;;;26.00;88.40;;;;;;5079038;28;19965;-47
2023/07/17 12:57:15;;;;;;;;;;;26.00;88.40;;;;;;5111995;28;19912;-48
2023/07/17 12:59:40;;;;;;;;;;;26.00;89.40;;;;;;5114653;28;19994;-47
2023/07/17 13:02:07;;;;;;;;;;;26.10;86.30;;;;;;5104105;28;19947;-41
2023/07/17 13:04:32;;;;;;;;;;;26.00;84.70;;;;;;5105978;28;19943;-44
2023/07/17 13:06:58;;;;;;;;;;;26.00;85.90;;;;;;5116738;28;19915;-42
2023/07/17 13:09:24;;;;;;;;;;;26.00;87.20;;;;;;5116838;28;19949;-48
2023/07/17 13:11:49;;;;;;;;;;;26.00;88.40;;;;;;5099146;28;20359;-46
2023/07/17 13:14:15;;;;;;;;;;;26.10;89.10;;;;;;5114563;28;19908;-44
2023/07/17 13:16:40;;;;;;;;;;;26.10;89.50;;;;;;5116788;28;19904;-41
2023/07/17 13:19:06;;;;;;;;;;;26.10;89.90;;;;;;5113762;28;19908;-42
2023/07/17 13:21:31;;;;;;;;;;;26.10;90.00;;;;;;5085810;28;19912;-45
2023/07/17 13:23:58;;;;;;;;;;;26.10;90.20;;;;;;5095239;28;19935;-43
2023/07/17 13:26:29;;;;;;;;;;;26.10;90.20;;;;;;5096508;28;20205;-42
2023/07/17 13:28:54;;;;;;;;;;;26.10;90.30;;;;;;5105430;28;20335;-46
2023/07/17 13:31:20;;;;;;;;;;;26.10;90.30;;;;;;5104814;28;19952;-40
2023/07/17 13:33:46;;;;;;;;;;;26.10;90.40;;;;;;5092588;28;20432;-42
2023/07/17 13:36:11;;;;;;;;;;;26.10;90.40;;;;;;5099711;28;19908;-40
2023/07/17 13:38:37;;;;;;;;;;;26.10;90.50;;;;;;5092495;28;20262;-43
2023/07/17 13:41:10;;;;;;;;;;;26.10;90.50;;;;;;5094886;28;19958;-42
2023/07/17 13:43:35;;;;;;;;;;;26.10;90.60;;;;;;5095016;28;19912;-43
2023/07/17 13:46:01;;;;;;;;;;;26.10;90.60;;;;;;5100005;28;19961;-42
2023/07/17 13:48:26;;;;;;;;;;;26.10;90.70;;;;;;5112602;28;19907;-41
2023/07/17 13:50:52;;;;;;;;;;;26.10;90.70;;;;;;5113943;28;19908;-41
2023/07/17 13:53:17;;;;;;;;;;;26.10;90.70;;;;;;5103861;28;19908;-43
2023/07/17 13:55:42;;;;;;;;;;;26.10;90.80;;;;;;5098648;28;19954;-43
2023/07/17 13:58:08;;;;;;;;;;;26.10;90.80;;;;;;5094091;28;19912;-42
2023/07/17 14:00:33;;;;;;;;;;;26.10;90.90;;;;;;5094624;28;19924;-47
2023/07/17 14:03:00;;;;;;;;;;;26.10;90.90;;;;;;5095678;28;19919;-41
2023/07/17 14:05:25;;;;;;;;;;;26.10;90.90;;;;;;5099429;28;19908;-41
2023/07/17 14:07:51;;;;;;;;;;;26.20;91.00;;;;;;5095410;28;20261;-41
2023/07/17 14:10:17;;;;;;;;;;;26.20;91.00;;;;;;5095202;28;20014;-43